createdAt,value
2019-01-09T00:02:22.156Z,3.85
2019-01-09T00:04:51.098Z,3.79
2019-01-09T00:07:20.071Z,3.82
2019-01-09T00:09:49.011Z,3.82
2019-01-09T00:12:18.474Z,3.83
2019-01-09T00:14:47.427Z,3.83
2019-01-09T00:17:16.404Z,3.83
2019-01-09T00:19:45.350Z,3.84
2019-01-09T00:22:14.428Z,3.77
2019-01-09T00:24:43.526Z,3.79
2019-01-09T00:27:12.518Z,3.83
2019-01-09T00:29:41.463Z,3.78
2019-01-09T00:32:10.405Z,3.83
2019-01-09T00:34:39.313Z,3.77
2019-01-09T00:37:08.274Z,3.71
2019-01-09T00:39:37.203Z,3.67
2019-01-09T00:42:06.274Z,3.52
2019-01-09T00:44:35.215Z,3.49
2019-01-09T00:47:04.163Z,3.42
2019-01-09T00:49:33.128Z,3.42
2019-01-09T00:52:02.012Z,3.42
2019-01-09T00:54:30.905Z,3.42
2019-01-09T00:56:59.936Z,3.38
2019-01-09T00:59:28.890Z,3.43
2019-01-09T01:02:24.093Z,3.51
2019-01-09T01:05:29.909Z,3.49
2019-01-09T01:08:35.901Z,3.53
2019-01-09T01:11:33.199Z,3.54
2019-01-09T01:14:38.031Z,3.58
2019-01-09T01:17:46.653Z,3.62
2019-01-09T01:20:51.234Z,3.49
2019-01-09T01:24:16.037Z,3.23
2019-01-09T01:27:06.847Z,3.12
2019-01-09T01:30:35.007Z,3.06
2019-01-09T01:33:18.707Z,2.98
2019-01-09T01:36:20.059Z,3.02
2019-01-09T01:39:30.154Z,3.04
2019-01-09T01:42:35.693Z,3.09
2019-01-09T01:45:24.763Z,3.00
2019-01-09T01:48:10.871Z,2.91
2019-01-09T01:51:15.561Z,2.99
2019-01-09T01:54:16.027Z,2.95
2019-01-09T01:57:20.699Z,2.98
2019-01-09T02:00:06.200Z,3.00
2019-01-09T02:03:32.660Z,3.00
2019-01-09T02:06:23.570Z,3.00
2019-01-09T02:09:30.744Z,3.06
2019-01-09T02:12:27.793Z,3.02
2019-01-09T02:15:25.599Z,2.93
2019-01-09T02:18:27.848Z,2.98
2019-01-09T02:21:17.924Z,2.97
2019-01-09T02:24:25.437Z,3.00
2019-01-09T02:27:11.435Z,2.95
2019-01-09T02:30:02.147Z,2.94
2019-01-09T02:32:30.406Z,2.96
2019-01-09T02:34:59.302Z,2.97
2019-01-09T02:37:28.758Z,2.93
2019-01-09T02:39:57.693Z,2.99
2019-01-09T02:42:26.651Z,3.03
2019-01-09T02:44:55.526Z,3.06
2019-01-09T02:47:24.572Z,3.09
2019-01-09T02:49:53.517Z,3.13
2019-01-09T02:52:22.515Z,3.06
2019-01-09T02:54:51.399Z,2.85
2019-01-09T02:57:20.267Z,2.74
2019-01-09T02:59:49.141Z,2.81
2019-01-09T03:02:18.105Z,2.89
2019-01-09T03:04:46.984Z,2.90
2019-01-09T03:07:15.854Z,2.88
2019-01-09T03:09:44.818Z,2.88
2019-01-09T03:12:13.764Z,2.88
2019-01-09T03:14:42.670Z,2.91
2019-01-09T03:17:11.914Z,2.87
2019-01-09T03:19:42.140Z,2.76
2019-01-09T03:22:11.086Z,2.74
2019-01-09T03:24:40.058Z,2.62
2019-01-09T03:27:09.082Z,2.59
2019-01-09T03:29:38.051Z,2.52
2019-01-09T03:32:06.999Z,2.44
2019-01-09T03:34:35.954Z,2.44
2019-01-09T03:37:04.938Z,2.44
2019-01-09T03:39:33.903Z,2.34
2019-01-09T03:42:02.776Z,2.25
2019-01-09T03:44:31.767Z,2.20
2019-01-09T03:47:00.721Z,2.19
2019-01-09T03:49:29.625Z,2.17
2019-01-09T03:51:58.443Z,2.20
2019-01-09T03:54:27.414Z,2.22
2019-01-09T03:56:56.300Z,2.25
2019-01-09T03:59:26.249Z,2.31
2019-01-09T04:01:55.209Z,2.31
2019-01-09T04:04:24.177Z,2.35
2019-01-09T04:06:53.069Z,2.36
2019-01-09T04:09:22.047Z,2.37
2019-01-09T04:11:50.835Z,2.37
2019-01-09T04:14:19.727Z,2.38
2019-01-09T04:16:48.619Z,2.40
2019-01-09T04:19:17.446Z,2.41
2019-01-09T04:21:46.346Z,2.41
2019-01-09T04:24:15.160Z,2.41
2019-01-09T04:26:43.973Z,2.40
2019-01-09T04:29:12.843Z,2.46
2019-01-09T04:31:41.688Z,2.48
2019-01-09T04:34:10.661Z,2.50
2019-01-09T04:36:39.483Z,2.52
2019-01-09T04:39:08.463Z,2.56
2019-01-09T04:41:37.294Z,2.59
2019-01-09T04:44:06.123Z,2.62
2019-01-09T04:46:34.993Z,2.68
2019-01-09T04:49:05.069Z,2.72
2019-01-09T04:51:33.979Z,2.67
2019-01-09T04:54:02.838Z,2.66
2019-01-09T04:56:31.662Z,2.67
2019-01-09T04:59:00.456Z,2.64
2019-01-09T05:01:29.325Z,2.60
2019-01-09T05:03:58.690Z,2.53
2019-01-09T05:06:27.512Z,2.48
2019-01-09T05:08:56.467Z,2.42
2019-01-09T05:11:25.382Z,2.36
2019-01-09T05:13:54.195Z,2.32
2019-01-09T05:16:23.091Z,2.31
2019-01-09T05:18:52.042Z,2.37
2019-01-09T05:21:20.948Z,2.34
2019-01-09T05:23:49.819Z,2.33
2019-01-09T05:26:18.635Z,2.37
2019-01-09T05:28:47.517Z,2.41
2019-01-09T05:31:16.525Z,2.47
2019-01-09T05:33:45.355Z,2.43
2019-01-09T05:36:14.194Z,2.46
2019-01-09T05:38:43.059Z,2.44
2019-01-09T05:41:11.871Z,2.41
2019-01-09T05:43:40.768Z,2.43
2019-01-09T05:46:09.641Z,2.42
2019-01-09T05:48:38.447Z,2.42
2019-01-09T05:51:07.336Z,2.42
2019-01-09T05:53:36.161Z,2.36
2019-01-09T05:56:05.053Z,2.32
2019-01-09T05:58:33.924Z,2.09
2019-01-09T06:01:02.745Z,1.98
2019-01-09T06:03:31.541Z,1.81
2019-01-09T06:06:01.440Z,1.71
2019-01-09T06:08:30.408Z,1.71
2019-01-09T06:10:59.365Z,1.60
2019-01-09T06:13:28.186Z,1.50
2019-01-09T06:15:57.004Z,1.32
2019-01-09T06:18:25.881Z,1.02
2019-01-09T06:20:54.827Z,0.86
2019-01-09T06:23:23.790Z,0.73
2019-01-09T06:25:52.737Z,0.56
2019-01-09T06:28:21.698Z,0.56
2019-01-09T06:30:50.503Z,0.56
2019-01-09T06:33:19.504Z,0.54
2019-01-09T06:35:48.284Z,0.47
2019-01-09T06:38:17.174Z,0.46
2019-01-09T06:40:46.088Z,0.48
2019-01-09T06:43:14.982Z,0.49
2019-01-09T06:45:43.850Z,0.51
2019-01-09T06:48:12.659Z,0.53
2019-01-09T06:50:41.611Z,0.59
2019-01-09T06:53:10.473Z,0.61
2019-01-09T06:55:39.344Z,0.69
2019-01-09T06:58:08.204Z,0.70
2019-01-09T07:00:37.065Z,0.69
2019-01-09T07:03:05.969Z,0.74
2019-01-09T07:05:34.772Z,0.76
2019-01-09T07:08:04.200Z,0.82
2019-01-09T07:10:33.036Z,0.83
2019-01-09T07:13:01.836Z,0.83
2019-01-09T07:15:30.789Z,0.77
2019-01-09T07:17:59.678Z,0.82
2019-01-09T07:20:28.555Z,0.88
2019-01-09T07:22:57.442Z,1.00
2019-01-09T07:25:26.419Z,0.99
2019-01-09T07:27:55.368Z,1.11
2019-01-09T07:30:24.238Z,1.18
2019-01-09T07:32:53.113Z,1.20
2019-01-09T07:35:21.979Z,1.26
2019-01-09T07:37:50.873Z,1.33
2019-01-09T07:40:19.661Z,1.40
2019-01-09T07:42:48.550Z,1.44
2019-01-09T07:45:17.351Z,1.50
2019-01-09T07:47:46.311Z,1.54
2019-01-09T07:50:15.201Z,1.62
2019-01-09T07:52:44.092Z,1.61
2019-01-09T07:55:12.967Z,1.65
2019-01-09T07:57:41.777Z,1.72
2019-01-09T08:00:11.726Z,1.75
2019-01-09T08:02:40.550Z,1.73
2019-01-09T08:05:09.430Z,1.79
2019-01-09T08:07:38.339Z,1.80
2019-01-09T08:10:08.972Z,1.79
2019-01-09T08:12:37.859Z,1.75
2019-01-09T08:15:07.918Z,1.72
2019-01-09T08:17:37.169Z,1.60
2019-01-09T08:20:07.070Z,1.07
2019-01-09T08:22:35.943Z,0.86
2019-01-09T08:25:04.935Z,0.88
2019-01-09T08:27:33.743Z,0.95
2019-01-09T08:30:02.637Z,1.08
2019-01-09T08:32:31.593Z,1.19
2019-01-09T08:35:00.722Z,1.23
2019-01-09T08:37:29.633Z,1.26
2019-01-09T08:39:58.455Z,1.32
2019-01-09T08:42:27.394Z,1.35
2019-01-09T08:44:56.320Z,1.38
2019-01-09T08:47:25.284Z,1.41
2019-01-09T08:49:54.415Z,1.46
2019-01-09T08:52:23.273Z,1.50
2019-01-09T08:54:52.162Z,1.49
2019-01-09T08:57:20.970Z,1.51
2019-01-09T08:59:49.876Z,1.60
2019-01-09T09:02:18.817Z,1.63
2019-01-09T09:04:47.806Z,1.66
2019-01-09T09:07:17.929Z,1.72
2019-01-09T09:09:46.891Z,1.74
2019-01-09T09:12:15.849Z,1.84
2019-01-09T09:14:44.667Z,1.82
2019-01-09T09:17:13.530Z,1.90
2019-01-09T09:19:42.406Z,1.94
2019-01-09T09:22:11.334Z,1.90
2019-01-09T09:24:40.418Z,1.92
2019-01-09T09:27:10.154Z,1.96
2019-01-09T09:29:39.121Z,1.97
2019-01-09T09:32:08.084Z,1.99
2019-01-09T09:34:36.986Z,2.10
2019-01-09T09:37:05.927Z,2.10
2019-01-09T09:39:34.899Z,2.10
2019-01-09T09:42:03.780Z,2.15
2019-01-09T09:44:32.733Z,2.16
2019-01-09T09:47:01.648Z,2.25
2019-01-09T09:49:30.526Z,2.23
2019-01-09T09:51:59.415Z,2.19
2019-01-09T09:54:28.247Z,2.21
2019-01-09T09:56:57.060Z,2.15
2019-01-09T09:59:25.939Z,2.18
2019-01-09T10:01:54.954Z,2.17
2019-01-09T10:04:23.832Z,2.19
2019-01-09T10:06:52.702Z,2.17
2019-01-09T10:09:21.495Z,2.15
2019-01-09T10:11:50.456Z,2.19
2019-01-09T10:14:19.268Z,2.18
2019-01-09T10:16:48.169Z,2.20
2019-01-09T10:19:17.062Z,2.18
2019-01-09T10:21:45.928Z,2.14
2019-01-09T10:24:14.822Z,2.23
2019-01-09T10:26:43.784Z,2.24
2019-01-09T10:29:12.574Z,2.25
2019-01-09T10:31:41.691Z,2.23
2019-01-09T10:34:10.482Z,2.26
2019-01-09T10:36:39.451Z,2.24
2019-01-09T10:39:09.592Z,2.26
2019-01-09T10:41:38.470Z,2.18
2019-01-09T10:44:07.436Z,2.21
2019-01-09T10:46:36.427Z,2.27
2019-01-09T10:49:08.726Z,2.33
2019-01-09T10:51:37.601Z,2.37
2019-01-09T10:54:06.651Z,2.35
2019-01-09T10:56:35.534Z,2.37
2019-01-09T10:59:04.497Z,2.25
2019-01-09T11:01:33.304Z,2.21
2019-01-09T11:04:02.438Z,1.98
2019-01-09T11:06:31.318Z,1.73
2019-01-09T11:09:00.272Z,1.69
2019-01-09T11:11:29.090Z,1.73
2019-01-09T11:13:57.886Z,1.59
2019-01-09T11:16:26.858Z,1.55
2019-01-09T11:18:55.667Z,1.62
2019-01-09T11:21:24.552Z,1.61
2019-01-09T11:23:53.434Z,1.64
2019-01-09T11:26:22.397Z,1.79
2019-01-09T11:28:51.189Z,1.86
2019-01-09T11:31:20.026Z,1.97
2019-01-09T11:33:48.972Z,2.07
2019-01-09T11:36:18.011Z,2.16
2019-01-09T11:38:55.427Z,2.30
2019-01-09T11:41:17.485Z,2.34
2019-01-09T11:43:46.361Z,2.33
2019-01-09T11:46:15.332Z,2.35
2019-01-09T11:48:44.109Z,2.40
2019-01-09T11:51:13.774Z,2.39
2019-01-09T11:53:42.596Z,2.56
2019-01-09T11:56:11.486Z,2.61
2019-01-09T11:58:40.291Z,2.56
2019-01-09T12:01:09.243Z,2.51
2019-01-09T12:03:38.106Z,2.51
2019-01-09T12:06:07.147Z,2.42
2019-01-09T12:08:36.095Z,2.30
2019-01-09T12:11:05.174Z,2.26
2019-01-09T12:13:34.246Z,2.39
2019-01-09T12:16:07.919Z,2.44
2019-01-09T12:18:33.749Z,2.51
2019-01-09T12:21:02.630Z,2.54
2019-01-09T12:23:31.531Z,2.49
2019-01-09T12:26:00.422Z,2.40
2019-01-09T12:28:29.292Z,2.37
2019-01-09T12:30:58.131Z,2.33
2019-01-09T12:33:26.920Z,2.36
2019-01-09T12:35:55.798Z,2.54
2019-01-09T12:38:24.602Z,2.61
2019-01-09T12:40:53.477Z,2.72
2019-01-09T12:43:22.744Z,2.63
2019-01-09T12:45:51.642Z,2.66
2019-01-09T12:48:20.506Z,2.77
2019-01-09T12:50:49.465Z,2.74
2019-01-09T12:53:18.294Z,2.88
2019-01-09T12:55:47.261Z,3.00
2019-01-09T12:58:16.149Z,3.10
2019-01-09T13:00:45.197Z,3.07
2019-01-09T13:03:14.065Z,3.07
2019-01-09T13:05:42.948Z,3.12
2019-01-09T13:08:12.021Z,3.09
2019-01-09T13:10:40.981Z,2.96
2019-01-09T13:13:09.850Z,2.85
2019-01-09T13:15:38.700Z,2.89
2019-01-09T13:18:07.589Z,2.75
2019-01-09T13:20:36.487Z,2.44
2019-01-09T13:23:05.369Z,2.24
2019-01-09T13:25:34.260Z,2.18
2019-01-09T13:28:03.155Z,2.18
2019-01-09T13:30:32.099Z,2.22
2019-01-09T13:33:00.978Z,2.24
2019-01-09T13:35:29.842Z,2.20
2019-01-09T13:37:58.651Z,2.18
2019-01-09T13:40:27.624Z,2.09
2019-01-09T13:42:57.886Z,2.02
2019-01-09T13:45:26.826Z,1.99
2019-01-09T13:47:55.902Z,1.96
2019-01-09T13:50:24.864Z,1.82
2019-01-09T13:52:53.822Z,1.69
2019-01-09T13:55:22.747Z,1.57
2019-01-09T13:57:51.637Z,1.58
2019-01-09T14:00:22.191Z,1.59
2019-01-09T14:02:51.566Z,1.65
2019-01-09T14:05:20.539Z,1.68
2019-01-09T14:07:49.698Z,1.70
2019-01-09T14:10:23.940Z,1.72
2019-01-09T14:12:52.834Z,1.73
2019-01-09T14:15:24.117Z,1.77
2019-01-09T14:17:53.005Z,1.77
2019-01-09T14:20:22.085Z,1.80
2019-01-09T14:22:51.085Z,1.86
2019-01-09T14:25:19.951Z,1.83
2019-01-09T14:27:49.053Z,1.81
2019-01-09T14:30:24.066Z,1.79
2019-01-09T14:32:53.129Z,1.80
2019-01-09T14:35:22.119Z,1.78
2019-01-09T14:37:51.000Z,1.74
2019-01-09T14:40:20.000Z,1.77
2019-01-09T14:42:49.090Z,1.67
2019-01-09T14:45:18.329Z,1.61
2019-01-09T14:47:47.289Z,1.57
2019-01-09T14:50:21.528Z,1.46
2019-01-09T14:52:50.591Z,1.40
2019-01-09T14:55:19.956Z,1.33
2019-01-09T14:57:49.954Z,1.39
2019-01-09T15:00:21.796Z,1.38
2019-01-09T15:02:50.615Z,1.44
2019-01-09T15:05:19.900Z,1.48
2019-01-09T15:07:48.780Z,1.54
2019-01-09T15:10:23.427Z,1.57
2019-01-09T15:12:52.479Z,1.57
2019-01-09T15:15:21.529Z,1.58
2019-01-09T15:17:50.476Z,1.57
2019-01-09T15:20:20.823Z,1.58
2019-01-09T15:22:50.499Z,1.60
2019-01-09T15:25:19.697Z,1.49
2019-01-09T15:27:48.736Z,1.43
2019-01-09T15:30:20.171Z,1.41
2019-01-09T15:32:49.120Z,1.39
2019-01-09T15:35:18.285Z,1.37
2019-01-09T15:37:47.207Z,1.35
2019-01-09T15:40:18.558Z,1.34
2019-01-09T15:42:47.746Z,1.33
2019-01-09T15:45:16.716Z,1.34
2019-01-09T15:47:45.832Z,1.42
2019-01-09T15:50:16.820Z,1.41
2019-01-09T15:52:45.775Z,1.47
2019-01-09T15:55:15.042Z,1.47
2019-01-09T15:57:44.341Z,1.44
2019-01-09T16:00:24.900Z,1.35
2019-01-09T16:02:53.847Z,1.29
2019-01-09T16:05:22.895Z,1.24
2019-01-09T16:07:51.688Z,1.26
2019-01-09T16:10:20.839Z,1.22
2019-01-09T16:12:49.787Z,1.21
2019-01-09T16:15:18.974Z,1.09
2019-01-09T16:17:47.924Z,1.17
2019-01-09T16:20:17.901Z,1.19
2019-01-09T16:22:46.877Z,1.10
2019-01-09T16:25:15.978Z,1.00
2019-01-09T16:27:44.843Z,0.89
2019-01-09T16:30:17.295Z,0.89
2019-01-09T16:32:46.290Z,0.82
2019-01-09T16:35:15.244Z,0.83
2019-01-09T16:37:44.043Z,0.77
2019-01-09T16:40:13.307Z,0.79
2019-01-09T16:42:42.111Z,0.66
2019-01-09T16:45:11.195Z,0.65
2019-01-09T16:47:40.084Z,0.65
2019-01-09T16:50:11.805Z,0.73
2019-01-09T16:52:40.775Z,0.81
2019-01-09T16:55:09.917Z,0.79
2019-01-09T16:57:39.138Z,0.79
2019-01-09T17:00:13.742Z,0.82
2019-01-09T17:02:42.726Z,0.93
2019-01-09T17:05:11.752Z,0.80
2019-01-09T17:07:40.622Z,0.87
2019-01-09T17:10:10.503Z,0.87
2019-01-09T17:12:39.393Z,0.88
2019-01-09T17:15:09.851Z,0.97
2019-01-09T17:17:38.724Z,1.04
2019-01-09T17:20:10.402Z,1.05
2019-01-09T17:22:39.358Z,1.06
2019-01-09T17:25:08.835Z,1.11
2019-01-09T17:27:37.881Z,1.15
2019-01-09T17:30:10.711Z,1.16
2019-01-09T17:32:39.883Z,1.19
2019-01-09T17:35:08.954Z,1.19
2019-01-09T17:37:37.909Z,1.14
2019-01-09T17:40:08.165Z,1.15
2019-01-09T17:42:37.114Z,1.16
2019-01-09T17:45:06.997Z,1.12
2019-01-09T17:47:36.038Z,1.07
2019-01-09T17:50:07.557Z,1.05
2019-01-09T17:52:36.596Z,1.06
2019-01-09T17:55:06.695Z,1.04
2019-01-09T17:57:35.493Z,1.06
2019-01-09T18:00:05.851Z,1.06
2019-01-09T18:02:34.743Z,1.13
2019-01-09T18:05:04.496Z,1.06
2019-01-09T18:07:33.899Z,1.06
2019-01-09T18:10:02.795Z,1.00
2019-01-09T18:12:31.677Z,1.04
2019-01-09T18:15:00.491Z,1.06
2019-01-09T18:17:29.444Z,1.06
2019-01-09T18:19:58.253Z,1.00
2019-01-09T18:22:27.147Z,1.01
2019-01-09T18:24:57.059Z,1.07
2019-01-09T18:27:27.076Z,0.95
2019-01-09T18:29:55.986Z,1.04
2019-01-09T18:32:56.189Z,1.08
2019-01-09T18:35:49.988Z,1.05
2019-01-09T18:38:46.942Z,1.20
2019-01-09T18:41:40.857Z,1.08
2019-01-09T18:44:27.456Z,0.99
2019-01-09T18:47:37.957Z,1.02
2019-01-09T18:50:49.604Z,1.02
2019-01-09T18:53:26.803Z,0.97
2019-01-09T18:55:55.700Z,1.02
2019-01-09T18:58:24.696Z,0.93
2019-01-09T19:00:53.561Z,0.92
2019-01-09T19:03:22.612Z,0.89
2019-01-09T19:05:51.767Z,0.87
2019-01-09T19:08:20.713Z,0.88
2019-01-09T19:10:49.668Z,0.92
2019-01-09T19:13:18.585Z,0.97
2019-01-09T19:15:47.654Z,0.89
2019-01-09T19:18:16.607Z,0.98
2019-01-09T19:20:45.605Z,1.00
2019-01-09T19:23:14.592Z,0.97
2019-01-09T19:25:43.515Z,1.02
2019-01-09T19:28:12.477Z,1.04
2019-01-09T19:30:42.575Z,1.08
2019-01-09T19:33:11.559Z,1.04
2019-01-09T19:35:40.730Z,1.00
2019-01-09T19:38:09.723Z,1.03
2019-01-09T19:40:38.593Z,1.01
2019-01-09T19:43:07.559Z,1.00
2019-01-09T19:45:36.524Z,0.98
2019-01-09T19:48:05.800Z,0.97
2019-01-09T19:50:42.520Z,0.94
2019-01-09T19:53:05.671Z,0.93
2019-01-09T19:55:34.526Z,0.93
2019-01-09T19:58:03.499Z,0.92
2019-01-09T20:00:32.460Z,0.95
2019-01-09T20:03:01.364Z,0.95
2019-01-09T20:05:31.065Z,0.96
2019-01-09T20:08:00.058Z,0.97
2019-01-09T20:10:29.204Z,0.97
2019-01-09T20:12:58.183Z,0.95
2019-01-09T20:15:27.241Z,0.94
2019-01-09T20:17:56.188Z,0.96
2019-01-09T20:20:25.350Z,0.97
2019-01-09T20:22:54.302Z,0.99
2019-01-09T20:25:23.295Z,1.04
2019-01-09T20:27:52.447Z,1.08
2019-01-09T20:30:24.309Z,1.06
2019-01-09T20:32:53.410Z,1.05
2019-01-09T20:35:22.235Z,0.99
2019-01-09T20:37:51.498Z,1.02
2019-01-09T20:40:20.375Z,1.02
2019-01-09T20:42:49.403Z,1.01
2019-01-09T20:45:18.710Z,1.04
2019-01-09T20:47:47.837Z,1.10
2019-01-09T20:50:30.071Z,1.07
2019-01-09T20:52:59.361Z,1.11
2019-01-09T20:55:28.320Z,1.15
2019-01-09T20:57:57.381Z,1.18
2019-01-09T21:00:30.820Z,1.18
2019-01-09T21:03:11.208Z,1.26
2019-01-09T21:05:45.265Z,1.16
2019-01-09T21:08:14.281Z,1.21
2019-01-09T21:10:43.379Z,1.14
2019-01-09T21:13:12.255Z,1.14
2019-01-09T21:15:41.238Z,1.23
2019-01-09T21:18:10.388Z,1.22
2019-01-09T21:20:39.458Z,1.20
2019-01-09T21:23:08.359Z,1.14
2019-01-09T21:25:37.319Z,1.09
2019-01-09T21:28:06.392Z,1.01
2019-01-09T21:30:35.361Z,1.10
2019-01-09T21:33:05.174Z,1.05
2019-01-09T21:35:35.031Z,1.01
2019-01-09T21:38:04.390Z,0.91
2019-01-09T21:40:33.533Z,0.89
2019-01-09T21:43:02.490Z,0.87
2019-01-09T21:45:31.313Z,0.83
2019-01-09T21:48:00.366Z,0.76
2019-01-09T21:50:29.505Z,0.68
2019-01-09T21:52:58.658Z,0.61
2019-01-09T21:55:27.729Z,0.63
2019-01-09T21:57:56.538Z,0.59
2019-01-09T22:02:39.411Z,0.65
2019-01-09T22:05:08.663Z,0.64
2019-01-09T22:07:37.623Z,0.64
2019-01-09T22:10:10.507Z,0.67
2019-01-09T22:12:39.701Z,0.63
2019-01-09T22:15:11.481Z,0.50
2019-01-09T22:17:40.374Z,0.44
2019-01-09T22:20:10.413Z,0.53
2019-01-09T22:22:39.204Z,0.47
2019-01-09T22:25:09.554Z,0.43
2019-01-09T22:27:38.536Z,0.47
2019-01-09T22:30:11.334Z,0.46
2019-01-09T22:32:40.229Z,0.51
2019-01-09T22:35:09.504Z,0.59
2019-01-09T22:37:38.470Z,0.41
2019-01-09T22:40:09.657Z,0.40
2019-01-09T22:42:38.447Z,0.42
2019-01-09T22:45:09.583Z,0.48
2019-01-09T22:47:38.575Z,0.59
2019-01-09T22:50:10.992Z,0.52
2019-01-09T22:52:40.035Z,0.63
2019-01-09T22:55:09.796Z,0.42
2019-01-09T22:57:38.937Z,0.38
2019-01-09T23:00:44.831Z,0.28
2019-01-09T23:03:14.101Z,0.29
2019-01-09T23:05:43.338Z,0.32
2019-01-09T23:08:12.395Z,0.31
2019-01-09T23:10:41.312Z,0.26
2019-01-09T23:13:10.376Z,0.20
2019-01-09T23:15:39.856Z,0.24
2019-01-09T23:18:09.105Z,0.26
2019-01-09T23:20:38.076Z,0.24
2019-01-09T23:23:07.075Z,0.24
2019-01-09T23:25:36.101Z,0.28
2019-01-09T23:28:05.258Z,0.23
2019-01-09T23:30:34.190Z,0.19
2019-01-09T23:33:03.167Z,0.19
2019-01-09T23:35:32.128Z,0.24
2019-01-09T23:38:01.021Z,0.17
2019-01-09T23:40:29.955Z,0.14
2019-01-09T23:42:59.026Z,0.07
2019-01-09T23:45:27.972Z,0.03
2019-01-09T23:47:57.007Z,0.02
2019-01-09T23:50:26.034Z,0.03
2019-01-09T23:52:55.113Z,0.07
2019-01-09T23:55:24.202Z,0.16
2019-01-09T23:57:53.103Z,0.12
